sensor_id;sensor_type;location;lat;lon;timestamp;temperature;humidity
61916;DHT22;47868;51.326;6.550;2022-09-28T01:49:45;10.00;99.90
61916;DHT22;47868;51.326;6.550;2022-09-28T01:55:01;10.00;99.90
61916;DHT22;47868;51.326;6.550;2022-09-28T01:57:53;10.10;99.90
61916;DHT22;47868;51.326;6.550;2022-09-28T02:00:22;10.00;99.90
61916;DHT22;47868;51.326;6.550;2022-09-28T02:05:39;10.00;99.90
61916;DHT22;47868;51.326;6.550;2022-09-28T02:08:25;10.00;99.90
61916;DHT22;47868;51.326;6.550;2022-09-28T02:11:12;10.00;99.90
61916;DHT22;47868;51.326;6.550;2022-09-28T02:13:47;10.00;99.90
61916;DHT22;47868;51.326;6.550;2022-09-28T02:18:59;10.10;99.90
61916;DHT22;47868;51.326;6.550;2022-09-28T02:21:28;10.00;99.90
61916;DHT22;47868;51.326;6.550;2022-09-28T02:24:02;10.00;99.90
61916;DHT22;47868;51.326;6.550;2022-09-28T02:26:40;10.00;99.90
61916;DHT22;47868;51.326;6.550;2022-09-28T02:29:07;10.00;99.90
61916;DHT22;47868;51.326;6.550;2022-09-28T02:31:32;10.00;99.90
61916;DHT22;47868;51.326;6.550;2022-09-28T02:33:59;10.00;99.90
61916;DHT22;47868;51.326;6.550;2022-09-28T02:36:25;10.00;99.90
61916;DHT22;47868;51.326;6.550;2022-09-28T02:38:52;10.00;99.90
61916;DHT22;47868;51.326;6.550;2022-09-28T02:41:30;10.00;99.90
61916;DHT22;47868;51.326;6.550;2022-09-28T02:44:02;10.10;99.90
61916;DHT22;47868;51.326;6.550;2022-09-28T02:46:36;10.10;99.90
61916;DHT22;47868;51.326;6.550;2022-09-28T02:49:10;10.10;99.90
61916;DHT22;47868;51.326;6.550;2022-09-28T02:57:37;10.10;99.90
61916;DHT22;47868;51.326;6.550;2022-09-28T03:05:44;10.20;99.90
61916;DHT22;47868;51.326;6.550;2022-09-28T03:08:33;10.20;99.90
61916;DHT22;47868;51.326;6.550;2022-09-28T03:11:04;10.20;99.90
61916;DHT22;47868;51.326;6.550;2022-09-28T03:13:32;10.20;99.90
61916;DHT22;47868;51.326;6.550;2022-09-28T03:16:16;10.20;99.90
61916;DHT22;47868;51.326;6.550;2022-09-28T03:18:43;10.10;99.90
61916;DHT22;47868;51.326;6.550;2022-09-28T03:21:11;10.20;99.90
61916;DHT22;47868;51.326;6.550;2022-09-28T03:23:37;10.10;99.90
61916;DHT22;47868;51.326;6.550;2022-09-28T03:26:03;10.10;99.90
61916;DHT22;47868;51.326;6.550;2022-09-28T03:28:29;10.10;99.90
61916;DHT22;47868;51.326;6.550;2022-09-28T03:30:54;10.10;99.90
61916;DHT22;47868;51.326;6.550;2022-09-28T03:33:20;10.10;99.90
61916;DHT22;47868;51.326;6.550;2022-09-28T03:35:48;10.10;99.90
61916;DHT22;47868;51.326;6.550;2022-09-28T03:38:14;10.10;99.90
61916;DHT22;47868;51.326;6.550;2022-09-28T03:40:39;10.10;99.90
61916;DHT22;47868;51.326;6.550;2022-09-28T03:43:05;10.10;99.90
61916;DHT22;47868;51.326;6.550;2022-09-28T03:45:30;10.10;99.90
61916;DHT22;47868;51.326;6.550;2022-09-28T03:47:56;10.10;99.90
61916;DHT22;47868;51.326;6.550;2022-09-28T03:50:22;10.10;99.90
61916;DHT22;47868;51.326;6.550;2022-09-28T03:52:47;10.10;99.90
61916;DHT22;47868;51.326;6.550;2022-09-28T03:55:13;10.20;99.90
61916;DHT22;47868;51.326;6.550;2022-09-28T03:57:39;10.20;99.90
61916;DHT22;47868;51.326;6.550;2022-09-28T04:00:05;10.20;99.90
61916;DHT22;47868;51.326;6.550;2022-09-28T04:02:32;10.20;99.90
61916;DHT22;47868;51.326;6.550;2022-09-28T04:04:58;10.20;99.90
61916;DHT22;47868;51.326;6.550;2022-09-28T04:07:24;10.10;99.90
61916;DHT22;47868;51.326;6.550;2022-09-28T04:09:50;10.10;99.90
61916;DHT22;47868;51.326;6.550;2022-09-28T04:12:15;10.10;99.90
61916;DHT22;47868;51.326;6.550;2022-09-28T04:14:41;10.10;99.90
61916;DHT22;47868;51.326;6.550;2022-09-28T04:17:06;10.10;99.90
61916;DHT22;47868;51.326;6.550;2022-09-28T04:19:32;10.10;99.90
61916;DHT22;47868;51.326;6.550;2022-09-28T04:21:58;10.20;99.90
61916;DHT22;47868;51.326;6.550;2022-09-28T04:24:25;10.10;99.90
61916;DHT22;47868;51.326;6.550;2022-09-28T04:26:50;10.10;99.90
61916;DHT22;47868;51.326;6.550;2022-09-28T04:29:16;10.10;99.90
61916;DHT22;47868;51.326;6.550;2022-09-28T04:31:47;10.10;99.90
61916;DHT22;47868;51.326;6.550;2022-09-28T04:34:16;10.10;99.90
61916;DHT22;47868;51.326;6.550;2022-09-28T04:36:46;10.00;99.90
61916;DHT22;47868;51.326;6.550;2022-09-28T04:39:13;10.00;99.90
61916;DHT22;47868;51.326;6.550;2022-09-28T04:41:40;10.00;99.90
61916;DHT22;47868;51.326;6.550;2022-09-28T04:44:06;10.00;99.90
61916;DHT22;47868;51.326;6.550;2022-09-28T04:46:32;10.00;99.90
61916;DHT22;47868;51.326;6.550;2022-09-28T04:48:57;10.00;99.90
61916;DHT22;47868;51.326;6.550;2022-09-28T04:51:23;10.00;99.90
61916;DHT22;47868;51.326;6.550;2022-09-28T04:53:49;10.00;99.90
61916;DHT22;47868;51.326;6.550;2022-09-28T04:56:17;10.00;99.90
61916;DHT22;47868;51.326;6.550;2022-09-28T04:58:43;10.00;99.90
61916;DHT22;47868;51.326;6.550;2022-09-28T05:01:12;10.00;99.90
61916;DHT22;47868;51.326;6.550;2022-09-28T05:03:38;10.00;99.90
61916;DHT22;47868;51.326;6.550;2022-09-28T05:06:04;10.00;99.90
61916;DHT22;47868;51.326;6.550;2022-09-28T05:08:31;10.00;99.90
61916;DHT22;47868;51.326;6.550;2022-09-28T05:11:01;10.10;99.90
61916;DHT22;47868;51.326;6.550;2022-09-28T05:13:28;10.10;99.90
61916;DHT22;47868;51.326;6.550;2022-09-28T05:15:54;10.10;99.90
61916;DHT22;47868;51.326;6.550;2022-09-28T05:18:21;10.10;99.90
61916;DHT22;47868;51.326;6.550;2022-09-28T05:20:46;10.00;99.90
61916;DHT22;47868;51.326;6.550;2022-09-28T05:23:12;10.00;99.90
61916;DHT22;47868;51.326;6.550;2022-09-28T05:25:40;10.00;99.90
61916;DHT22;47868;51.326;6.550;2022-09-28T05:28:06;10.00;99.90
61916;DHT22;47868;51.326;6.550;2022-09-28T05:30:33;10.00;99.90
61916;DHT22;47868;51.326;6.550;2022-09-28T05:33:00;10.00;99.90
61916;DHT22;47868;51.326;6.550;2022-09-28T05:35:26;10.00;99.90
61916;DHT22;47868;51.326;6.550;2022-09-28T05:37:52;10.10;99.90
61916;DHT22;47868;51.326;6.550;2022-09-28T05:40:19;10.00;99.90
61916;DHT22;47868;51.326;6.550;2022-09-28T05:42:45;10.00;99.90
61916;DHT22;47868;51.326;6.550;2022-09-28T05:45:11;10.00;99.90
61916;DHT22;47868;51.326;6.550;2022-09-28T05:47:41;10.00;99.90
61916;DHT22;47868;51.326;6.550;2022-09-28T05:50:08;10.00;99.90
61916;DHT22;47868;51.326;6.550;2022-09-28T05:52:39;10.00;99.90
61916;DHT22;47868;51.326;6.550;2022-09-28T05:55:05;10.10;99.90
61916;DHT22;47868;51.326;6.550;2022-09-28T05:57:31;10.10;99.90
61916;DHT22;47868;51.326;6.550;2022-09-28T05:59:57;10.10;99.90
61916;DHT22;47868;51.326;6.550;2022-09-28T06:02:23;10.10;99.90
61916;DHT22;47868;51.326;6.550;2022-09-28T06:04:49;10.00;99.90
61916;DHT22;47868;51.326;6.550;2022-09-28T06:07:19;10.10;99.90
61916;DHT22;47868;51.326;6.550;2022-09-28T06:09:46;10.10;99.90
61916;DHT22;47868;51.326;6.550;2022-09-28T06:12:12;10.10;99.90
61916;DHT22;47868;51.326;6.550;2022-09-28T06:14:37;10.10;99.90
61916;DHT22;47868;51.326;6.550;2022-09-28T06:17:03;10.10;99.90
61916;DHT22;47868;51.326;6.550;2022-09-28T06:19:29;10.20;99.90
61916;DHT22;47868;51.326;6.550;2022-09-28T06:21:55;10.10;99.90
61916;DHT22;47868;51.326;6.550;2022-09-28T06:24:21;10.20;99.90
61916;DHT22;47868;51.326;6.550;2022-09-28T06:26:47;10.10;99.90
61916;DHT22;47868;51.326;6.550;2022-09-28T06:29:12;10.10;99.90
61916;DHT22;47868;51.326;6.550;2022-09-28T06:31:46;10.20;99.90
61916;DHT22;47868;51.326;6.550;2022-09-28T06:34:12;10.20;99.90
61916;DHT22;47868;51.326;6.550;2022-09-28T06:36:38;10.20;99.90
61916;DHT22;47868;51.326;6.550;2022-09-28T06:39:04;10.20;99.90
61916;DHT22;47868;51.326;6.550;2022-09-28T06:41:30;10.20;99.90
61916;DHT22;47868;51.326;6.550;2022-09-28T06:43:56;10.30;99.90
61916;DHT22;47868;51.326;6.550;2022-09-28T06:46:22;10.30;99.90
61916;DHT22;47868;51.326;6.550;2022-09-28T06:48:48;10.30;99.90
61916;DHT22;47868;51.326;6.550;2022-09-28T06:51:14;10.40;99.90
61916;DHT22;47868;51.326;6.550;2022-09-28T06:53:40;10.50;99.90
61916;DHT22;47868;51.326;6.550;2022-09-28T06:56:08;10.40;99.90
61916;DHT22;47868;51.326;6.550;2022-09-28T06:58:35;10.50;99.90
61916;DHT22;47868;51.326;6.550;2022-09-28T07:01:00;10.50;99.90
61916;DHT22;47868;51.326;6.550;2022-09-28T07:03:26;10.60;99.90
61916;DHT22;47868;51.326;6.550;2022-09-28T07:05:53;10.60;99.90
61916;DHT22;47868;51.326;6.550;2022-09-28T07:08:21;10.60;99.90
61916;DHT22;47868;51.326;6.550;2022-09-28T07:10:49;10.50;99.90
61916;DHT22;47868;51.326;6.550;2022-09-28T07:13:26;10.60;99.90
61916;DHT22;47868;51.326;6.550;2022-09-28T07:15:55;10.60;99.90
61916;DHT22;47868;51.326;6.550;2022-09-28T07:18:22;10.70;99.90
61916;DHT22;47868;51.326;6.550;2022-09-28T07:20:48;10.70;99.90
61916;DHT22;47868;51.326;6.550;2022-09-28T07:23:13;10.80;99.90
61916;DHT22;47868;51.326;6.550;2022-09-28T07:25:40;10.70;99.90
61916;DHT22;47868;51.326;6.550;2022-09-28T07:28:10;10.80;99.90
61916;DHT22;47868;51.326;6.550;2022-09-28T07:30:36;10.90;99.90
61916;DHT22;47868;51.326;6.550;2022-09-28T07:33:03;10.90;99.90
61916;DHT22;47868;51.326;6.550;2022-09-28T07:35:30;10.90;99.90
61916;DHT22;47868;51.326;6.550;2022-09-28T07:38:03;11.00;99.90
61916;DHT22;47868;51.326;6.550;2022-09-28T07:40:30;10.90;99.90
61916;DHT22;47868;51.326;6.550;2022-09-28T07:43:14;10.90;99.90
61916;DHT22;47868;51.326;6.550;2022-09-28T07:45:45;11.00;99.90
61916;DHT22;47868;51.326;6.550;2022-09-28T07:48:12;11.00;99.90
61916;DHT22;47868;51.326;6.550;2022-09-28T07:50:41;11.00;99.90
61916;DHT22;47868;51.326;6.550;2022-09-28T07:53:06;11.10;99.90
61916;DHT22;47868;51.326;6.550;2022-09-28T07:55:32;11.10;99.90
61916;DHT22;47868;51.326;6.550;2022-09-28T07:57:59;11.20;99.90
61916;DHT22;47868;51.326;6.550;2022-09-28T08:00:29;11.20;99.90
61916;DHT22;47868;51.326;6.550;2022-09-28T08:03:00;11.40;99.90
61916;DHT22;47868;51.326;6.550;2022-09-28T08:05:27;11.40;99.90
61916;DHT22;47868;51.326;6.550;2022-09-28T08:07:56;11.50;99.90
61916;DHT22;47868;51.326;6.550;2022-09-28T08:10:24;11.50;99.90
61916;DHT22;47868;51.326;6.550;2022-09-28T08:12:56;11.60;99.90
61916;DHT22;47868;51.326;6.550;2022-09-28T08:15:23;11.80;99.90
61916;DHT22;47868;51.326;6.550;2022-09-28T08:17:49;11.90;99.90
61916;DHT22;47868;51.326;6.550;2022-09-28T08:20:15;11.90;99.90
61916;DHT22;47868;51.326;6.550;2022-09-28T08:23:06;11.90;99.90
61916;DHT22;47868;51.326;6.550;2022-09-28T08:25:33;11.90;99.90
61916;DHT22;47868;51.326;6.550;2022-09-28T08:28:01;12.00;99.90
61916;DHT22;47868;51.326;6.550;2022-09-28T08:30:27;11.80;99.90
61916;DHT22;47868;51.326;6.550;2022-09-28T08:32:52;11.70;99.90
61916;DHT22;47868;51.326;6.550;2022-09-28T08:35:18;11.70;99.90
61916;DHT22;47868;51.326;6.550;2022-09-28T08:37:49;11.80;99.90
61916;DHT22;47868;51.326;6.550;2022-09-28T08:40:20;11.70;99.90
61916;DHT22;47868;51.326;6.550;2022-09-28T08:42:52;11.80;99.90
61916;DHT22;47868;51.326;6.550;2022-09-28T08:45:26;11.70;99.90
61916;DHT22;47868;51.326;6.550;2022-09-28T08:48:11;11.70;99.90
61916;DHT22;47868;51.326;6.550;2022-09-28T08:51:08;11.80;99.90
61916;DHT22;47868;51.326;6.550;2022-09-28T08:53:45;11.90;99.90
61916;DHT22;47868;51.326;6.550;2022-09-28T08:56:22;11.90;99.90
61916;DHT22;47868;51.326;6.550;2022-09-28T08:58:55;11.90;99.90
61916;DHT22;47868;51.326;6.550;2022-09-28T09:01:24;12.00;99.90
61916;DHT22;47868;51.326;6.550;2022-09-28T09:03:52;12.00;99.90
61916;DHT22;47868;51.326;6.550;2022-09-28T09:12:16;11.90;99.90
61916;DHT22;47868;51.326;6.550;2022-09-28T09:23:54;12.40;99.90
61916;DHT22;47868;51.326;6.550;2022-09-28T09:26:31;12.50;99.90
61916;DHT22;47868;51.326;6.550;2022-09-28T09:29:02;12.60;99.90
61916;DHT22;47868;51.326;6.550;2022-09-28T09:34:48;12.80;99.90
61916;DHT22;47868;51.326;6.550;2022-09-28T09:40:22;12.80;99.90
61916;DHT22;47868;51.326;6.550;2022-09-28T09:48:22;13.10;99.90
61916;DHT22;47868;51.326;6.550;2022-09-28T09:50:54;13.20;99.90
61916;DHT22;47868;51.326;6.550;2022-09-28T09:55:55;13.20;99.90
61916;DHT22;47868;51.326;6.550;2022-09-28T09:58:34;13.30;99.90
61916;DHT22;47868;51.326;6.550;2022-09-28T10:01:09;13.60;99.90
61916;DHT22;47868;51.326;6.550;2022-09-28T10:03:40;13.80;99.90
61916;DHT22;47868;51.326;6.550;2022-09-28T10:06:30;13.80;99.90
61916;DHT22;47868;51.326;6.550;2022-09-28T10:11:32;13.80;99.90
61916;DHT22;47868;51.326;6.550;2022-09-28T10:14:02;14.00;99.90
61916;DHT22;47868;51.326;6.550;2022-09-28T10:16:29;14.10;99.90
61916;DHT22;47868;51.326;6.550;2022-09-28T10:18:57;14.50;99.90
61916;DHT22;47868;51.326;6.550;2022-09-28T10:21:24;14.70;99.90
61916;DHT22;47868;51.326;6.550;2022-09-28T10:23:56;14.70;99.90
61916;DHT22;47868;51.326;6.550;2022-09-28T10:26:39;14.70;99.90
61916;DHT22;47868;51.326;6.550;2022-09-28T10:29:25;14.60;99.90
61916;DHT22;47868;51.326;6.550;2022-09-28T10:31:52;14.60;99.90
61916;DHT22;47868;51.326;6.550;2022-09-28T10:34:25;14.40;99.90
61916;DHT22;47868;51.326;6.550;2022-09-28T10:39:34;14.10;99.90
61916;DHT22;47868;51.326;6.550;2022-09-28T10:42:05;13.90;99.90
61916;DHT22;47868;51.326;6.550;2022-09-28T10:44:34;14.10;99.90
61916;DHT22;47868;51.326;6.550;2022-09-28T10:47:04;14.20;99.90
61916;DHT22;47868;51.326;6.550;2022-09-28T10:49:42;14.40;99.90
61916;DHT22;47868;51.326;6.550;2022-09-28T10:57:36;14.60;99.90
61916;DHT22;47868;51.326;6.550;2022-09-28T11:00:04;14.40;99.90
61916;DHT22;47868;51.326;6.550;2022-09-28T11:02:33;14.30;99.90
61916;DHT22;47868;51.326;6.550;2022-09-28T11:05:02;14.10;99.90
61916;DHT22;47868;51.326;6.550;2022-09-28T11:07:30;14.20;99.90
61916;DHT22;47868;51.326;6.550;2022-09-28T11:09:57;14.70;99.90
61916;DHT22;47868;51.326;6.550;2022-09-28T11:12:26;15.10;99.90
61916;DHT22;47868;51.326;6.550;2022-09-28T11:14:59;15.90;99.90
61916;DHT22;47868;51.326;6.550;2022-09-28T11:17:31;17.00;99.90
61916;DHT22;47868;51.326;6.550;2022-09-28T11:19:59;17.30;99.90
61916;DHT22;47868;51.326;6.550;2022-09-28T11:33:14;18.40;99.90
61916;DHT22;47868;51.326;6.550;2022-09-28T11:44:33;20.60;90.50
61916;DHT22;47868;51.326;6.550;2022-09-28T11:47:15;20.60;90.40
61916;DHT22;47868;51.326;6.550;2022-09-28T11:49:48;19.60;88.80
61916;DHT22;47868;51.326;6.550;2022-09-28T11:52:45;18.60;91.50
61916;DHT22;47868;51.326;6.550;2022-09-28T11:55:23;17.60;94.10
61916;DHT22;47868;51.326;6.550;2022-09-28T12:01:13;16.50;97.60
61916;DHT22;47868;51.326;6.550;2022-09-28T12:03:50;16.10;99.70
61916;DHT22;47868;51.326;6.550;2022-09-28T12:06:19;16.00;99.90
61916;DHT22;47868;51.326;6.550;2022-09-28T12:08:51;16.60;99.90
61916;DHT22;47868;51.326;6.550;2022-09-28T12:11:29;17.10;99.90
61916;DHT22;47868;51.326;6.550;2022-09-28T12:13:59;17.00;99.90
61916;DHT22;47868;51.326;6.550;2022-09-28T12:16:52;16.70;99.90
61916;DHT22;47868;51.326;6.550;2022-09-28T12:20:02;16.30;99.90
61916;DHT22;47868;51.326;6.550;2022-09-28T12:22:28;16.10;99.90
61916;DHT22;47868;51.326;6.550;2022-09-28T12:24:56;16.20;99.90
61916;DHT22;47868;51.326;6.550;2022-09-28T12:27:44;15.90;99.90
61916;DHT22;47868;51.326;6.550;2022-09-28T12:30:16;15.70;99.90
61916;DHT22;47868;51.326;6.550;2022-09-28T12:32:48;15.70;99.90
61916;DHT22;47868;51.326;6.550;2022-09-28T12:44:24;16.60;99.90
61916;DHT22;47868;51.326;6.550;2022-09-28T12:50:26;17.20;99.90
61916;DHT22;47868;51.326;6.550;2022-09-28T13:01:11;23.50;63.20
61916;DHT22;47868;51.326;6.550;2022-09-28T13:09:26;19.60;71.50
61916;DHT22;47868;51.326;6.550;2022-09-28T13:12:20;19.70;74.60
61916;DHT22;47868;51.326;6.550;2022-09-28T13:15:24;22.70;69.10
61916;DHT22;47868;51.326;6.550;2022-09-28T13:18:00;26.90;56.90
61916;DHT22;47868;51.326;6.550;2022-09-28T13:20:36;29.90;46.70
61916;DHT22;47868;51.326;6.550;2022-09-28T13:25:39;34.10;34.60
61916;DHT22;47868;51.326;6.550;2022-09-28T13:28:05;35.10;31.30
61916;DHT22;47868;51.326;6.550;2022-09-28T13:30:32;35.90;29.40
61916;DHT22;47868;51.326;6.550;2022-09-28T13:33:02;37.10;28.50
61916;DHT22;47868;51.326;6.550;2022-09-28T13:35:28;38.30;27.00
61916;DHT22;47868;51.326;6.550;2022-09-28T13:52:03;34.00;29.80
61916;DHT22;47868;51.326;6.550;2022-09-28T14:02:35;33.50;28.40
61916;DHT22;47868;51.326;6.550;2022-09-28T14:05:05;33.90;28.00
61916;DHT22;47868;51.326;6.550;2022-09-28T14:12:50;39.70;23.50
61916;DHT22;47868;51.326;6.550;2022-09-28T14:17:58;40.30;21.40
61916;DHT22;47868;51.326;6.550;2022-09-28T14:20:26;36.50;23.00
61916;DHT22;47868;51.326;6.550;2022-09-28T14:25:32;29.20;28.70
61916;DHT22;47868;51.326;6.550;2022-09-28T14:28:32;25.90;33.00
61916;DHT22;47868;51.326;6.550;2022-09-28T14:31:07;23.20;37.40
61916;DHT22;47868;51.326;6.550;2022-09-28T14:33:35;22.00;39.60
61916;DHT22;47868;51.326;6.550;2022-09-28T14:36:07;21.00;40.90
61916;DHT22;47868;51.326;6.550;2022-09-28T14:39:18;20.40;41.60
61916;DHT22;47868;51.326;6.550;2022-09-28T14:42:08;19.00;49.60
61916;DHT22;47868;51.326;6.550;2022-09-28T14:45:38;17.80;54.90
61916;DHT22;47868;51.326;6.550;2022-09-28T14:47:43;17.30;58.10
61916;DHT22;47868;51.326;6.550;2022-09-28T14:50:28;17.50;92.40
61916;DHT22;47868;51.326;6.550;2022-09-28T14:53:02;17.70;99.90
61916;DHT22;47868;51.326;6.550;2022-09-28T14:55:43;17.80;99.90
61916;DHT22;47868;51.326;6.550;2022-09-28T14:58:21;17.80;99.90
61916;DHT22;47868;51.326;6.550;2022-09-28T15:00:50;17.70;99.90
61916;DHT22;47868;51.326;6.550;2022-09-28T15:03:17;17.60;99.90
61916;DHT22;47868;51.326;6.550;2022-09-28T15:05:46;17.90;99.90
61916;DHT22;47868;51.326;6.550;2022-09-28T15:08:14;17.60;99.90
61916;DHT22;47868;51.326;6.550;2022-09-28T15:10:45;17.60;99.90
61916;DHT22;47868;51.326;6.550;2022-09-28T15:13:23;17.50;99.90
61916;DHT22;47868;51.326;6.550;2022-09-28T15:15:54;17.40;99.90
61916;DHT22;47868;51.326;6.550;2022-09-28T15:20:56;17.20;99.90
61916;DHT22;47868;51.326;6.550;2022-09-28T15:25:53;17.00;99.90
61916;DHT22;47868;51.326;6.550;2022-09-28T15:28:21;16.70;99.90
61916;DHT22;47868;51.326;6.550;2022-09-28T15:30:47;16.40;99.90
61916;DHT22;47868;51.326;6.550;2022-09-28T15:33:30;16.00;99.90
61916;DHT22;47868;51.326;6.550;2022-09-28T15:36:39;15.80;99.90
61916;DHT22;47868;51.326;6.550;2022-09-28T15:39:12;15.50;99.90
61916;DHT22;47868;51.326;6.550;2022-09-28T15:41:41;15.40;99.90
61916;DHT22;47868;51.326;6.550;2022-09-28T15:46:38;15.10;99.90
61916;DHT22;47868;51.326;6.550;2022-09-28T15:49:18;15.00;99.90
61916;DHT22;47868;51.326;6.550;2022-09-28T15:51:50;14.80;99.90
61916;DHT22;47868;51.326;6.550;2022-09-28T15:54:27;14.60;99.90
61916;DHT22;47868;51.326;6.550;2022-09-28T15:57:01;14.20;99.90
61916;DHT22;47868;51.326;6.550;2022-09-28T15:59:52;14.20;99.90
61916;DHT22;47868;51.326;6.550;2022-09-28T16:02:19;14.40;99.90
61916;DHT22;47868;51.326;6.550;2022-09-28T16:04:47;14.30;99.90
61916;DHT22;47868;51.326;6.550;2022-09-28T16:07:24;14.10;99.90
61916;DHT22;47868;51.326;6.550;2022-09-28T16:12:41;14.30;99.90
61916;DHT22;47868;51.326;6.550;2022-09-28T16:15:46;14.40;99.90
61916;DHT22;47868;51.326;6.550;2022-09-28T16:18:20;14.70;99.90
61916;DHT22;47868;51.326;6.550;2022-09-28T16:20:51;14.80;99.90
61916;DHT22;47868;51.326;6.550;2022-09-28T16:23:30;14.80;99.90
61916;DHT22;47868;51.326;6.550;2022-09-28T16:26:05;14.60;99.90
61916;DHT22;47868;51.326;6.550;2022-09-28T16:31:03;14.60;99.90
61916;DHT22;47868;51.326;6.550;2022-09-28T16:33:38;14.70;99.90
61916;DHT22;47868;51.326;6.550;2022-09-28T16:36:11;14.70;99.90
61916;DHT22;47868;51.326;6.550;2022-09-28T16:38:37;14.70;99.90
61916;DHT22;47868;51.326;6.550;2022-09-28T16:41:03;14.70;99.90
61916;DHT22;47868;51.326;6.550;2022-09-28T16:43:31;14.80;99.90
61916;DHT22;47868;51.326;6.550;2022-09-28T16:46:08;14.80;99.90
61916;DHT22;47868;51.326;6.550;2022-09-28T16:48:37;14.80;99.90
61916;DHT22;47868;51.326;6.550;2022-09-28T16:51:04;14.90;99.90
61916;DHT22;47868;51.326;6.550;2022-09-28T16:53:30;14.90;99.90
61916;DHT22;47868;51.326;6.550;2022-09-28T16:56:15;15.00;99.90
61916;DHT22;47868;51.326;6.550;2022-09-28T16:58:40;14.90;99.90
61916;DHT22;47868;51.326;6.550;2022-09-28T17:01:10;14.90;99.90
61916;DHT22;47868;51.326;6.550;2022-09-28T17:03:36;14.90;99.90
61916;DHT22;47868;51.326;6.550;2022-09-28T17:06:03;14.80;99.90
61916;DHT22;47868;51.326;6.550;2022-09-28T17:08:30;14.70;99.90
61916;DHT22;47868;51.326;6.550;2022-09-28T17:10:58;14.70;99.90
61916;DHT22;47868;51.326;6.550;2022-09-28T17:13:29;14.60;99.90
61916;DHT22;47868;51.326;6.550;2022-09-28T17:15:59;14.50;99.90
61916;DHT22;47868;51.326;6.550;2022-09-28T17:18:25;14.30;99.90
61916;DHT22;47868;51.326;6.550;2022-09-28T17:20:52;14.20;99.90
61916;DHT22;47868;51.326;6.550;2022-09-28T17:23:20;14.20;99.90
61916;DHT22;47868;51.326;6.550;2022-09-28T17:25:46;14.10;99.90
61916;DHT22;47868;51.326;6.550;2022-09-28T17:30:46;14.10;99.90
61916;DHT22;47868;51.326;6.550;2022-09-28T17:33:12;14.00;99.90
61916;DHT22;47868;51.326;6.550;2022-09-28T17:35:38;13.90;99.90
61916;DHT22;47868;51.326;6.550;2022-09-28T17:38:04;13.70;99.90
61916;DHT22;47868;51.326;6.550;2022-09-28T17:40:29;13.70;99.90
